Time;durP1;ratioP1;P1;durP2;ratioP2;P2;SDS_P1;SDS_P2;PMS_P1;PMS_P2;Temp;Humidity;BMP_temperature;BMP_pressure;BME280_temperature;BME280_humidity;BME280_pressure;Samples;Min_cycle;Max_cycle;Signal;HPM_P1;HPM_P2
2021/11/21 00:00:15;;;;;;;25.03;22.73;;;2.60;99.90;;;;;;5009627;28;20435;-78
2021/11/21 00:02:47;;;;;;;26.77;24.20;;;2.60;99.90;;;;;;5003978;28;20490;-78
2021/11/21 00:05:14;;;;;;;28.20;25.60;;;2.80;99.90;;;;;;5008774;28;20488;-79
2021/11/21 00:07:42;;;;;;;26.70;24.20;;;2.80;99.90;;;;;;5001931;28;20437;-77
2021/11/21 00:10:10;;;;;;;26.93;24.23;;;2.80;99.90;;;;;;5009772;28;20439;-78
2021/11/21 00:12:37;;;;;;;26.70;24.27;;;2.80;99.90;;;;;;5002091;28;20480;-78
2021/11/21 00:15:06;;;;;;;23.93;21.83;;;2.80;99.90;;;;;;5005287;28;20514;-78
2021/11/21 00:17:34;;;;;;;23.77;21.67;;;2.80;99.90;;;;;;5006576;28;20439;-78
2021/11/21 00:20:01;;;;;;;25.20;22.80;;;2.70;99.90;;;;;;5003988;28;20459;-78
2021/11/21 00:22:34;;;;;;;25.23;22.97;;;2.70;99.90;;;;;;4995438;28;20458;-78
2021/11/21 00:25:02;;;;;;;22.93;21.13;;;2.70;99.90;;;;;;4999480;28;20472;-78
2021/11/21 00:27:28;;;;;;;23.50;21.43;;;2.70;99.90;;;;;;5006291;28;20438;-78
2021/11/21 00:29:55;;;;;;;22.23;20.33;;;2.60;99.90;;;;;;5005277;28;20455;-78
2021/11/21 00:32:22;;;;;;;21.93;20.13;;;2.60;99.90;;;;;;4994174;28;20522;-77
2021/11/21 00:34:50;;;;;;;22.20;20.20;;;2.50;99.90;;;;;;5000875;28;20514;-78
2021/11/21 00:37:17;;;;;;;22.57;20.57;;;2.40;99.90;;;;;;4997524;28;20546;-78
2021/11/21 00:39:44;;;;;;;25.67;20.87;;;2.40;99.90;;;;;;5001823;28;20964;-78
2021/11/21 00:42:14;;;;;;;21.67;19.97;;;2.30;99.90;;;;;;4997946;28;20579;-77
2021/11/21 00:44:42;;;;;;;21.23;19.43;;;2.20;99.90;;;;;;5004261;28;20473;-78
2021/11/21 00:47:10;;;;;;;22.07;20.27;;;2.20;99.90;;;;;;4998882;28;20452;-78
2021/11/21 00:49:37;;;;;;;22.87;20.83;;;2.10;99.90;;;;;;4997509;28;20449;-77
2021/11/21 00:52:06;;;;;;;25.07;20.73;;;2.00;99.90;;;;;;5000045;28;20478;-77
2021/11/21 00:54:46;;;;;;;21.00;19.30;;;2.00;99.90;;;;;;5004613;28;20493;-78
2021/11/21 00:57:12;;;;;;;20.73;18.90;;;1.90;99.90;;;;;;5004315;28;20448;-78
2021/11/21 00:59:39;;;;;;;20.97;19.03;;;1.90;99.90;;;;;;5003936;28;20453;-78
2021/11/21 01:02:09;;;;;;;22.10;20.10;;;1.90;99.90;;;;;;4999401;28;20531;-78
2021/11/21 01:04:36;;;;;;;20.83;18.97;;;1.90;99.90;;;;;;4997019;28;20481;-78
2021/11/21 01:07:05;;;;;;;22.40;20.60;;;1.90;99.90;;;;;;5005621;28;20437;-79
2021/11/21 01:09:32;;;;;;;22.10;19.93;;;1.80;99.90;;;;;;5005642;28;20782;-78
2021/11/21 01:12:00;;;;;;;21.20;19.40;;;1.80;99.90;;;;;;5005421;28;20469;-78
2021/11/21 01:14:28;;;;;;;20.67;19.13;;;1.80;99.90;;;;;;5002249;28;20440;-78
2021/11/21 01:16:55;;;;;;;20.90;19.07;;;1.80;99.90;;;;;;5005586;28;20461;-77
2021/11/21 01:19:21;;;;;;;22.07;20.20;;;1.80;99.90;;;;;;5002680;28;20451;-78
2021/11/21 01:21:48;;;;;;;23.10;21.20;;;1.90;99.90;;;;;;5006906;28;20528;-78
2021/11/21 01:24:17;;;;;;;31.53;22.17;;;1.90;99.90;;;;;;5001918;28;20993;-78
2021/11/21 01:26:43;;;;;;;32.47;21.63;;;1.90;99.90;;;;;;4999497;28;20813;-78
2021/11/21 01:29:10;;;;;;;22.63;20.83;;;2.00;99.90;;;;;;5000053;28;20509;-78
2021/11/21 01:31:38;;;;;;;22.00;20.10;;;2.00;99.90;;;;;;5001935;28;20856;-78
2021/11/21 01:34:05;;;;;;;23.90;21.80;;;2.00;99.90;;;;;;5006430;28;20456;-78
2021/11/21 01:36:32;;;;;;;23.60;21.43;;;2.10;99.90;;;;;;5002654;28;20496;-78
2021/11/21 01:38:59;;;;;;;24.17;21.70;;;2.10;99.90;;;;;;5007810;28;20439;-78
2021/11/21 01:41:27;;;;;;;24.53;21.93;;;2.10;99.90;;;;;;4996762;28;20493;-78
2021/11/21 01:43:54;;;;;;;28.27;21.60;;;2.10;99.90;;;;;;5007037;28;20470;-78
2021/11/21 01:46:31;;;;;;;25.17;22.47;;;2.10;99.90;;;;;;4998197;28;20686;-77
2021/11/21 01:48:58;;;;;;;22.53;20.60;;;2.00;99.90;;;;;;4996357;28;20977;-78
2021/11/21 01:51:25;;;;;;;22.43;20.53;;;2.10;99.90;;;;;;5007297;28;20491;-78
2021/11/21 01:53:52;;;;;;;22.87;20.97;;;2.10;99.90;;;;;;5000058;28;20452;-78
2021/11/21 01:56:19;;;;;;;22.97;20.90;;;2.20;99.90;;;;;;5002166;28;20450;-78
2021/11/21 01:58:47;;;;;;;22.93;20.97;;;2.20;99.90;;;;;;5003545;28;20461;-78
2021/11/21 02:01:14;;;;;;;23.57;21.47;;;2.20;99.90;;;;;;4999691;28;20455;-78
2021/11/21 02:03:41;;;;;;;23.80;21.60;;;2.20;99.90;;;;;;4999684;28;20473;-78
2021/11/21 02:06:08;;;;;;;22.53;20.80;;;2.20;99.90;;;;;;4994334;28;20455;-78
2021/11/21 02:08:35;;;;;;;22.20;20.40;;;2.10;99.90;;;;;;5003117;28;20714;-78
2021/11/21 02:11:02;;;;;;;21.43;19.67;;;2.10;99.90;;;;;;5001149;28;20832;-78
2021/11/21 02:13:29;;;;;;;22.33;20.53;;;2.10;99.90;;;;;;4997723;28;20464;-78
2021/11/21 02:15:58;;;;;;;22.43;20.43;;;2.10;99.90;;;;;;5001315;28;20444;-78
2021/11/21 02:18:25;;;;;;;21.93;20.20;;;2.10;99.90;;;;;;4990539;28;20449;-78
2021/11/21 02:20:54;;;;;;;21.93;20.13;;;2.00;99.90;;;;;;4997673;28;20832;-78
2021/11/21 02:23:22;;;;;;;20.93;19.33;;;2.00;99.90;;;;;;5001421;28;20896;-78
2021/11/21 02:25:50;;;;;;;21.83;19.97;;;2.00;99.90;;;;;;4999693;28;20536;-78
2021/11/21 02:28:17;;;;;;;21.20;19.47;;;2.00;99.90;;;;;;5002762;28;20448;-78
2021/11/21 02:30:45;;;;;;;21.50;19.80;;;1.90;99.90;;;;;;4997696;28;21038;-78
2021/11/21 02:33:15;;;;;;;21.30;19.50;;;1.90;99.90;;;;;;5003685;28;21189;-78
2021/11/21 02:35:44;;;;;;;21.00;19.37;;;1.90;99.90;;;;;;4999864;28;20448;-78
2021/11/21 02:38:15;;;;;;;21.73;19.93;;;2.00;99.90;;;;;;4997340;28;20493;-78
2021/11/21 02:40:42;;;;;;;22.03;20.30;;;2.00;99.90;;;;;;4993772;28;20517;-78
2021/11/21 02:43:09;;;;;;;20.53;18.90;;;2.00;99.90;;;;;;4997357;28;20522;-78
2021/11/21 02:45:36;;;;;;;20.80;19.00;;;1.90;99.90;;;;;;5001045;28;20542;-78
2021/11/21 02:48:03;;;;;;;21.30;19.60;;;1.80;99.90;;;;;;5000450;28;20475;-79
2021/11/21 02:50:31;;;;;;;20.93;19.07;;;1.80;99.90;;;;;;5004398;28;20926;-78
2021/11/21 02:52:59;;;;;;;22.07;20.23;;;1.70;99.90;;;;;;5002341;28;20472;-78
2021/11/21 02:55:30;;;;;;;21.30;19.60;;;1.70;99.90;;;;;;4999137;28;20461;-78
2021/11/21 02:57:57;;;;;;;35.77;21.60;;;1.70;99.90;;;;;;4992723;28;20494;-78
2021/11/21 03:00:25;;;;;;;33.40;22.10;;;1.80;99.90;;;;;;5001706;28;20462;-79
2021/11/21 03:02:52;;;;;;;21.63;19.73;;;1.80;99.90;;;;;;5004420;28;20541;-78
2021/11/21 03:05:21;;;;;;;22.50;20.33;;;1.70;99.90;;;;;;5011119;28;20517;-78
2021/11/21 03:07:48;;;;;;;21.17;19.47;;;1.60;99.90;;;;;;5005509;28;20497;-78
2021/11/21 03:10:18;;;;;;;29.97;19.00;;;1.60;99.90;;;;;;5001143;28;20454;-78
2021/11/21 03:12:48;;;;;;;23.93;19.70;;;1.50;99.90;;;;;;5001455;28;20549;-78
2021/11/21 03:15:15;;;;;;;19.80;18.20;;;1.50;99.90;;;;;;5001193;28;20543;-78
2021/11/21 03:17:44;;;;;;;20.60;18.80;;;1.50;99.90;;;;;;4998933;28;20468;-78
2021/11/21 03:20:12;;;;;;;18.67;17.20;;;1.50;99.90;;;;;;5000835;28;20549;-78
2021/11/21 03:22:40;;;;;;;18.83;17.23;;;1.60;99.90;;;;;;4997272;28;20565;-78
2021/11/21 03:25:07;;;;;;;23.13;18.60;;;1.60;99.90;;;;;;4995342;28;20482;-78
2021/11/21 03:27:34;;;;;;;22.67;18.87;;;1.60;99.90;;;;;;4994188;28;20863;-78
2021/11/21 03:30:06;;;;;;;20.30;18.50;;;1.50;99.90;;;;;;4995520;28;20888;-78
2021/11/21 03:32:33;;;;;;;18.80;17.30;;;1.60;99.90;;;;;;4999034;28;20479;-78
2021/11/21 03:35:00;;;;;;;18.93;16.90;;;1.60;99.90;;;;;;5001669;28;20458;-78
2021/11/21 03:37:28;;;;;;;20.07;18.23;;;1.50;99.90;;;;;;4996577;28;20448;-78
2021/11/21 03:39:55;;;;;;;23.87;18.90;;;1.50;99.90;;;;;;4991463;28;20510;-77
2021/11/21 03:42:22;;;;;;;21.53;19.50;;;1.50;99.90;;;;;;5000647;28;20556;-77
2021/11/21 03:44:49;;;;;;;29.47;19.83;;;1.50;99.90;;;;;;5014525;28;20991;-77
2021/11/21 03:47:18;;;;;;;19.33;17.50;;;1.50;99.90;;;;;;5003571;28;20437;-78
2021/11/21 03:49:45;;;;;;;17.90;16.50;;;1.50;99.90;;;;;;4998558;28;20455;-78
2021/11/21 03:52:12;;;;;;;17.63;16.23;;;1.40;99.90;;;;;;4992794;28;20480;-78
2021/11/21 03:54:39;;;;;;;18.10;16.70;;;1.30;99.90;;;;;;4986393;28;20450;-78
2021/11/21 03:57:06;;;;;;;17.97;16.23;;;1.20;99.90;;;;;;4981101;28;20459;-78
2021/11/21 03:59:33;;;;;;;24.03;16.80;;;1.20;99.90;;;;;;4985165;28;20542;-78
2021/11/21 04:02:01;;;;;;;18.93;17.00;;;1.20;99.90;;;;;;4986839;28;20482;-78
2021/11/21 04:04:31;;;;;;;17.63;16.00;;;1.10;99.90;;;;;;4998545;28;20548;-79
2021/11/21 04:06:58;;;;;;;17.60;16.30;;;1.10;99.90;;;;;;4988454;28;20482;-78
2021/11/21 04:09:25;;;;;;;18.17;16.77;;;1.10;99.90;;;;;;4984892;28;21063;-78
2021/11/21 04:11:52;;;;;;;20.03;18.20;;;1.10;99.90;;;;;;4981469;28;20520;-78
2021/11/21 04:14:19;;;;;;;19.30;17.80;;;1.10;99.90;;;;;;4981208;28;20441;-78
2021/11/21 04:16:47;;;;;;;19.10;17.60;;;1.10;99.90;;;;;;4979758;28;20454;-78
2021/11/21 04:19:14;;;;;;;19.70;18.27;;;1.00;99.90;;;;;;4987734;28;20503;-78
2021/11/21 04:21:42;;;;;;;19.37;17.97;;;1.00;99.90;;;;;;4993995;28;20433;-78
2021/11/21 04:24:13;;;;;;;19.83;18.33;;;1.10;99.90;;;;;;4997763;28;20465;-78
2021/11/21 04:26:40;;;;;;;19.00;17.60;;;1.00;99.90;;;;;;5000723;28;20809;-78
2021/11/21 04:29:07;;;;;;;19.27;17.70;;;1.10;99.90;;;;;;5000979;28;20537;-78
2021/11/21 04:31:34;;;;;;;18.60;17.13;;;1.10;99.90;;;;;;4993902;28;20520;-77
2021/11/21 04:34:01;;;;;;;19.57;17.97;;;1.10;99.90;;;;;;4994104;28;20546;-78
2021/11/21 04:36:28;;;;;;;18.90;17.43;;;1.10;99.90;;;;;;4991659;28;20452;-78
2021/11/21 04:38:56;;;;;;;19.13;17.50;;;1.20;99.90;;;;;;4987390;28;20503;-78
2021/11/21 04:41:23;;;;;;;18.07;16.67;;;1.10;99.90;;;;;;4991188;28;20448;-78
2021/11/21 04:43:50;;;;;;;18.67;17.17;;;1.20;99.90;;;;;;4993806;28;20526;-78
2021/11/21 04:46:17;;;;;;;17.80;16.30;;;1.10;99.90;;;;;;4995201;28;20515;-78
2021/11/21 04:48:44;;;;;;;17.93;16.63;;;1.10;99.90;;;;;;4992512;28;20869;-77
2021/11/21 04:51:11;;;;;;;18.23;16.77;;;1.00;99.90;;;;;;4987512;28;20447;-78
2021/11/21 04:53:39;;;;;;;18.60;16.40;;;1.00;99.90;;;;;;4993980;28;20469;-78
2021/11/21 04:56:07;;;;;;;18.57;17.00;;;1.00;99.90;;;;;;4995345;28;20447;-78
2021/11/21 04:58:34;;;;;;;19.00;17.50;;;1.00;99.90;;;;;;4993811;28;20495;-78
2021/11/21 05:01:01;;;;;;;28.50;19.10;;;0.90;99.90;;;;;;4999641;28;20441;-77
2021/11/21 05:03:28;;;;;;;19.03;17.63;;;1.00;99.90;;;;;;5003925;28;20524;-77
2021/11/21 05:05:56;;;;;;;19.33;17.93;;;1.00;99.90;;;;;;5005367;28;20476;-78
2021/11/21 05:08:23;;;;;;;19.37;17.97;;;1.10;99.90;;;;;;5003349;28;20461;-76
2021/11/21 05:10:50;;;;;;;18.83;17.40;;;1.10;99.90;;;;;;5005781;28;20439;-78
2021/11/21 05:13:19;;;;;;;18.53;17.20;;;1.20;99.90;;;;;;4998595;28;20556;-81
2021/11/21 05:15:46;;;;;;;18.23;16.83;;;1.20;99.90;;;;;;5006183;28;20926;-79
2021/11/21 05:18:13;;;;;;;19.90;18.10;;;1.20;99.90;;;;;;4996384;28;20472;-79
2021/11/21 05:20:40;;;;;;;19.03;17.33;;;1.20;99.90;;;;;;5004162;28;20460;-79
2021/11/21 05:23:07;;;;;;;18.50;17.10;;;1.20;99.90;;;;;;5003392;28;20483;-78
2021/11/21 05:25:34;;;;;;;18.60;17.20;;;1.20;99.90;;;;;;5002711;28;21005;-78
2021/11/21 05:28:01;;;;;;;18.40;17.00;;;1.20;99.90;;;;;;5004744;28;20432;-79
2021/11/21 05:30:29;;;;;;;18.63;17.23;;;1.20;99.90;;;;;;4998549;28;20517;-79
2021/11/21 05:32:56;;;;;;;18.80;17.30;;;1.30;99.90;;;;;;5004643;28;20485;-79
2021/11/21 05:35:23;;;;;;;18.70;17.30;;;1.40;99.90;;;;;;5004095;28;20440;-78
2021/11/21 05:37:51;;;;;;;19.07;17.47;;;1.30;99.90;;;;;;5003402;28;20501;-79
2021/11/21 05:40:20;;;;;;;19.73;18.23;;;1.30;99.90;;;;;;4998819;28;20489;-79
2021/11/21 05:42:47;;;;;;;19.00;17.50;;;1.30;99.90;;;;;;4996157;28;20566;-79
2021/11/21 05:45:14;;;;;;;18.40;16.90;;;1.40;99.90;;;;;;5004926;28;20507;-79
2021/11/21 05:47:42;;;;;;;18.97;17.43;;;1.40;99.90;;;;;;4997880;28;20440;-79
2021/11/21 05:50:12;;;;;;;18.27;16.73;;;1.40;99.90;;;;;;5004778;28;20437;-79
2021/11/21 05:52:40;;;;;;;20.73;17.17;;;1.30;99.90;;;;;;4999162;28;20470;-78
2021/11/21 05:55:07;;;;;;;17.03;15.73;;;1.30;99.90;;;;;;5003882;28;20941;-79
2021/11/21 05:57:34;;;;;;;17.40;16.20;;;1.20;99.90;;;;;;5004582;28;20522;-79
2021/11/21 06:00:01;;;;;;;17.70;16.30;;;1.20;99.90;;;;;;5000093;28;20834;-78
2021/11/21 06:02:38;;;;;;;17.13;15.93;;;1.10;99.90;;;;;;5000563;28;20447;-77
2021/11/21 06:05:07;;;;;;;17.10;15.53;;;1.00;99.90;;;;;;4992307;28;20824;-78
2021/11/21 06:07:34;;;;;;;15.03;14.03;;;0.90;99.90;;;;;;4991272;28;20461;-78
2021/11/21 06:10:03;;;;;;;25.53;16.07;;;0.80;99.90;;;;;;4990659;28;20440;-78
2021/11/21 06:12:30;;;;;;;16.13;14.90;;;0.80;99.90;;;;;;4987548;28;20522;-78
2021/11/21 06:14:57;;;;;;;15.23;14.20;;;0.80;99.90;;;;;;5000759;28;20799;-79
2021/11/21 06:17:24;;;;;;;24.50;16.13;;;0.80;99.90;;;;;;4996543;28;20949;-78
2021/11/21 06:19:51;;;;;;;16.07;14.57;;;0.80;99.90;;;;;;5004171;28;20439;-79
2021/11/21 06:22:19;;;;;;;15.27;14.17;;;0.80;99.90;;;;;;4997410;28;20465;-79
2021/11/21 06:24:46;;;;;;;15.13;13.90;;;0.80;99.90;;;;;;5005695;28;20473;-78
2021/11/21 06:27:14;;;;;;;16.07;14.93;;;0.90;99.90;;;;;;5004637;28;20918;-78
2021/11/21 06:29:41;;;;;;;16.90;15.40;;;1.00;99.90;;;;;;5003937;28;20444;-78
2021/11/21 06:32:09;;;;;;;15.67;14.47;;;1.00;99.90;;;;;;5000701;28;20488;-79
2021/11/21 06:34:35;;;;;;;15.90;14.80;;;1.00;99.90;;;;;;5002777;28;20463;-79
2021/11/21 06:37:04;;;;;;;17.30;15.90;;;1.00;99.90;;;;;;5001713;28;20438;-78
2021/11/21 06:39:35;;;;;;;17.33;16.03;;;0.90;99.90;;;;;;5000561;28;20452;-79
2021/11/21 06:42:02;;;;;;;16.77;15.57;;;1.00;99.90;;;;;;4998063;28;20542;-78
2021/11/21 06:44:29;;;;;;;16.40;15.20;;;1.00;99.90;;;;;;5002842;28;20436;-77
2021/11/21 06:46:56;;;;;;;38.03;18.20;;;1.10;99.90;;;;;;4996873;28;20481;-78
2021/11/21 06:49:23;;;;;;;16.03;14.83;;;1.00;99.90;;;;;;4997777;28;20509;-78
2021/11/21 06:51:50;;;;;;;16.83;15.57;;;1.00;99.90;;;;;;4993447;28;20487;-78
2021/11/21 06:54:17;;;;;;;15.57;14.47;;;0.90;99.90;;;;;;5001627;28;20436;-78
2021/11/21 06:56:45;;;;;;;16.17;14.97;;;1.00;99.90;;;;;;5003357;28;20502;-79
2021/11/21 06:59:12;;;;;;;16.00;14.70;;;1.00;99.90;;;;;;5001885;28;20443;-79
2021/11/21 07:01:41;;;;;;;34.47;16.80;;;1.10;99.90;;;;;;4998499;28;20456;-79
2021/11/21 07:04:08;;;;;;;18.43;15.57;;;1.00;99.90;;;;;;5002839;28;20803;-79
2021/11/21 07:06:37;;;;;;;17.47;15.93;;;1.00;99.90;;;;;;4998215;28;20878;-78
2021/11/21 07:09:07;;;;;;;16.07;14.87;;;0.90;99.90;;;;;;5008589;28;20500;-79
2021/11/21 07:11:34;;;;;;;16.80;15.37;;;1.00;99.90;;;;;;4995046;28;20448;-79
2021/11/21 07:14:02;;;;;;;16.43;15.23;;;0.90;99.90;;;;;;4996686;28;20457;-78
2021/11/21 07:16:29;;;;;;;16.67;15.47;;;1.00;99.90;;;;;;4992659;28;20445;-78
2021/11/21 07:18:56;;;;;;;16.87;15.67;;;1.10;99.90;;;;;;5004594;28;20971;-78
2021/11/21 07:21:24;;;;;;;29.67;16.87;;;1.10;99.90;;;;;;5007772;28;20871;-79
2021/11/21 07:23:51;;;;;;;17.00;15.60;;;1.10;99.90;;;;;;5002201;28;20516;-81
2021/11/21 07:26:18;;;;;;;15.93;14.80;;;1.10;99.90;;;;;;4994422;28;20531;-78
2021/11/21 07:28:44;;;;;;;17.47;15.27;;;1.10;99.90;;;;;;4995335;28;20454;-78
2021/11/21 07:31:13;;;;;;;16.93;15.57;;;1.20;99.90;;;;;;4996233;28;20484;-81
2021/11/21 07:33:40;;;;;;;16.77;15.50;;;1.20;99.90;;;;;;4995483;28;20461;-79
2021/11/21 07:36:08;;;;;;;16.83;15.53;;;1.20;99.90;;;;;;4997992;28;20442;-78
2021/11/21 07:38:35;;;;;;;17.37;16.07;;;1.30;99.90;;;;;;4999735;28;20746;-78
2021/11/21 07:41:02;;;;;;;17.07;15.77;;;1.40;99.90;;;;;;4996439;28;20456;-78
2021/11/21 07:43:30;;;;;;;17.77;16.27;;;1.40;99.90;;;;;;5002496;28;20500;-78
2021/11/21 07:45:58;;;;;;;16.60;15.40;;;1.50;99.90;;;;;;4997049;28;20998;-79
2021/11/21 07:48:26;;;;;;;18.00;16.60;;;1.50;99.90;;;;;;4994603;28;20483;-79
2021/11/21 07:50:53;;;;;;;21.57;17.23;;;1.50;99.90;;;;;;4996190;28;20428;-79
2021/11/21 07:53:20;;;;;;;18.63;16.90;;;1.50;99.90;;;;;;4993013;28;20484;-79
2021/11/21 07:55:47;;;;;;;18.50;17.00;;;1.60;99.90;;;;;;4993473;28;20477;-77
2021/11/21 07:58:14;;;;;;;22.17;17.80;;;1.60;99.90;;;;;;4993283;28;20450;-77
2021/11/21 08:00:42;;;;;;;16.70;15.30;;;1.60;99.90;;;;;;4994771;28;20877;-78
2021/11/21 08:03:08;;;;;;;17.70;16.30;;;1.60;99.90;;;;;;4993696;28;20472;-77
2021/11/21 08:05:37;;;;;;;16.47;15.17;;;1.70;99.90;;;;;;4995300;28;20977;-78
2021/11/21 08:08:05;;;;;;;17.10;15.80;;;1.70;99.90;;;;;;4997136;28;20453;-78
2021/11/21 08:10:32;;;;;;;17.57;16.17;;;1.70;99.90;;;;;;4997243;28;20437;-79
2021/11/21 08:12:59;;;;;;;17.60;16.10;;;1.80;99.90;;;;;;4999703;28;20524;-78
2021/11/21 08:15:26;;;;;;;17.60;16.03;;;1.80;99.90;;;;;;5011233;28;20454;-79
2021/11/21 08:17:53;;;;;;;17.83;16.33;;;1.90;99.90;;;;;;5002574;28;20457;-77
2021/11/21 08:20:20;;;;;;;18.43;16.93;;;1.90;99.90;;;;;;5000444;28;20509;-78
2021/11/21 08:22:49;;;;;;;18.60;17.10;;;2.00;99.90;;;;;;4995797;28;21036;-78
2021/11/21 08:25:15;;;;;;;18.90;17.40;;;2.00;99.90;;;;;;4998694;28;20456;-78
2021/11/21 08:27:43;;;;;;;20.70;18.90;;;1.90;99.90;;;;;;4998163;28;20538;-78
2021/11/21 08:30:10;;;;;;;19.30;17.70;;;1.90;99.90;;;;;;4996200;28;20864;-77
2021/11/21 08:32:38;;;;;;;20.37;18.67;;;2.10;99.90;;;;;;4995632;28;20534;-78
2021/11/21 08:35:05;;;;;;;19.60;18.00;;;2.20;99.90;;;;;;4996510;28;20961;-78
2021/11/21 08:37:33;;;;;;;18.10;16.70;;;2.10;99.90;;;;;;5000767;28;20429;-78
2021/11/21 08:40:02;;;;;;;20.10;18.20;;;2.20;99.90;;;;;;4997889;28;20453;-78
2021/11/21 08:42:29;;;;;;;20.57;18.93;;;2.20;99.90;;;;;;4997376;28;21008;-79
2021/11/21 08:44:56;;;;;;;19.27;17.57;;;2.10;99.90;;;;;;4997248;28;20522;-78
2021/11/21 08:47:22;;;;;;;20.40;18.60;;;2.20;99.90;;;;;;5004673;28;20907;-78
2021/11/21 08:49:49;;;;;;;20.10;18.50;;;2.20;99.90;;;;;;4997418;28;20450;-77
2021/11/21 08:52:16;;;;;;;19.87;18.20;;;2.30;99.90;;;;;;4996061;28;20475;-78
2021/11/21 08:54:43;;;;;;;22.30;20.17;;;2.30;99.90;;;;;;4991620;28;20517;-78
2021/11/21 08:57:57;;;;;;;19.83;18.37;;;2.40;99.90;;;;;;4985603;28;20458;-78
2021/11/21 09:30:53;;;;;;;19.93;18.23;;;3.20;99.90;;;;;;4885644;28;20460;-77
2021/11/21 09:33:34;;;;;;;18.17;16.67;;;3.40;99.90;;;;;;4968561;28;20796;-78
2021/11/21 09:48:39;;;;;;;19.07;17.23;;;3.40;99.90;;;;;;4910244;29;20229;-77
2021/11/21 10:43:04;;;;;;;20.03;18.13;;;4.00;99.90;;;;;;4969538;28;20603;-79
2021/11/21 10:49:53;;;;;;;19.70;17.87;;;4.30;99.90;;;;;;4991723;28;20194;-78
2021/11/21 12:16:15;;;;;;;19.53;17.83;;;4.60;99.90;;;;;;4890336;29;20217;-78
2021/11/21 12:19:07;;;;;;;20.70;18.80;;;4.60;99.90;;;;;;4895052;29;20207;-78
2021/11/21 12:21:45;;;;;;;20.77;18.77;;;4.60;99.90;;;;;;4924866;29;20207;-78
2021/11/21 12:24:25;;;;;;;19.83;18.00;;;4.80;99.90;;;;;;4987800;28;20213;-78
2021/11/21 12:26:53;;;;;;;21.17;19.27;;;4.80;99.90;;;;;;5023426;28;20221;-78
2021/11/21 12:29:29;;;;;;;19.47;17.63;;;4.70;99.90;;;;;;4992227;28;20194;-78
2021/11/21 12:31:58;;;;;;;20.03;18.30;;;4.80;99.90;;;;;;4993487;28;20748;-78
2021/11/21 12:34:40;;;;;;;20.67;18.60;;;5.00;99.90;;;;;;5001699;28;20209;-78
2021/11/21 12:37:12;;;;;;;18.43;16.93;;;5.00;99.90;;;;;;5002305;28;20201;-78
2021/11/21 12:39:40;;;;;;;19.90;18.07;;;5.00;99.90;;;;;;5000543;28;20625;-77
2021/11/21 12:42:10;;;;;;;23.57;21.70;;;5.00;99.90;;;;;;5002219;28;20229;-78
2021/11/21 12:44:39;;;;;;;20.70;18.70;;;5.00;99.90;;;;;;5000483;28;20224;-78
2021/11/21 12:47:06;;;;;;;19.13;17.57;;;5.10;99.90;;;;;;4992104;28;20209;-79
2021/11/21 12:49:35;;;;;;;21.03;19.13;;;5.10;99.90;;;;;;4993629;28;20256;-78
2021/11/21 12:52:04;;;;;;;21.67;19.83;;;5.10;99.90;;;;;;4990486;28;20220;-78
2021/11/21 12:54:31;;;;;;;19.90;18.07;;;5.00;99.90;;;;;;5013808;28;20197;-78
2021/11/21 12:56:58;;;;;;;18.27;16.73;;;4.90;99.90;;;;;;4997150;28;20202;-78
2021/11/21 12:59:46;;;;;;;21.70;19.93;;;5.00;99.90;;;;;;5002167;28;20251;-78
2021/11/21 13:02:14;;;;;;;33.40;31.00;;;4.90;99.90;;;;;;5001067;28;20280;-79
2021/11/21 13:04:53;;;;;;;17.60;16.10;;;4.90;99.90;;;;;;4994128;28;20194;-78
2021/11/21 13:07:30;;;;;;;19.40;17.60;;;4.90;99.90;;;;;;4988518;28;20268;-78
2021/11/21 13:10:09;;;;;;;18.23;16.73;;;4.90;99.90;;;;;;4996088;28;20809;-79
2021/11/21 13:12:42;;;;;;;18.80;17.20;;;4.90;99.90;;;;;;5003570;28;20251;-78
2021/11/21 13:15:12;;;;;;;18.83;16.97;;;5.00;99.90;;;;;;5000875;28;20208;-77
2021/11/21 13:17:40;;;;;;;19.57;17.83;;;5.00;99.90;;;;;;4991516;28;20217;-77
2021/11/21 13:20:14;;;;;;;18.60;17.00;;;5.00;99.90;;;;;;5017880;28;20202;-78
2021/11/21 13:22:50;;;;;;;19.10;17.50;;;4.90;99.90;;;;;;4994310;28;20295;-77
2021/11/21 13:25:37;;;;;;;19.53;17.77;;;5.00;99.90;;;;;;4986877;28;20205;-78
2021/11/21 13:28:37;;;;;;;19.03;17.23;;;5.00;99.90;;;;;;4984332;28;20269;-77
2021/11/21 13:31:15;;;;;;;18.30;16.70;;;4.90;99.90;;;;;;4991753;28;20691;-77
2021/11/21 13:33:44;;;;;;;18.57;16.90;;;4.90;99.90;;;;;;4997274;28;20284;-78
2021/11/21 13:36:16;;;;;;;18.80;17.07;;;4.90;99.90;;;;;;5003958;28;20686;-78
2021/11/21 13:38:44;;;;;;;19.10;17.30;;;4.90;99.90;;;;;;5002144;28;20205;-78
2021/11/21 13:41:15;;;;;;;19.90;18.00;;;4.90;99.90;;;;;;4999395;28;20251;-78
2021/11/21 13:43:45;;;;;;;19.27;17.47;;;4.90;99.90;;;;;;5038065;28;20256;-78
2021/11/21 13:46:15;;;;;;;18.77;17.03;;;5.00;99.90;;;;;;5033415;28;20729;-78
2021/11/21 13:48:55;;;;;;;18.90;17.17;;;5.00;99.90;;;;;;5004227;28;20740;-79
2021/11/21 13:54:47;;;;;;;18.67;16.97;;;5.00;99.90;;;;;;5005656;28;20240;-77
2021/11/21 13:57:19;;;;;;;18.43;16.70;;;4.90;99.90;;;;;;5001593;28;20228;-78
2021/11/21 13:59:46;;;;;;;18.80;17.13;;;5.00;99.90;;;;;;5000818;28;20598;-78
2021/11/21 14:02:13;;;;;;;18.63;16.83;;;4.90;99.90;;;;;;5005802;28;20271;-78
2021/11/21 14:04:40;;;;;;;18.83;17.13;;;4.90;99.90;;;;;;4999606;28;20205;-78
2021/11/21 14:07:13;;;;;;;19.70;17.97;;;5.00;99.90;;;;;;5005043;28;20205;-79
2021/11/21 14:09:57;;;;;;;19.43;17.67;;;4.90;99.90;;;;;;4994834;28;20556;-80
2021/11/21 14:12:26;;;;;;;18.93;17.27;;;5.00;99.90;;;;;;5003826;28;20220;-80
2021/11/21 14:15:12;;;;;;;18.47;17.07;;;5.00;99.90;;;;;;5001610;28;20634;-79
2021/11/21 14:17:44;;;;;;;19.13;17.27;;;5.00;99.90;;;;;;4998402;28;20205;-80
2021/11/21 14:20:28;;;;;;;19.20;17.50;;;5.00;99.90;;;;;;4997673;28;20630;-80
2021/11/21 14:23:05;;;;;;;19.77;18.00;;;5.00;99.90;;;;;;4996657;28;20222;-82
2021/11/21 14:25:34;;;;;;;18.23;16.43;;;5.00;99.90;;;;;;5003108;28;20200;-82
2021/11/21 14:28:07;;;;;;;19.73;17.67;;;5.00;99.90;;;;;;4992842;28;20213;-85
2021/11/21 14:30:39;;;;;;;19.97;18.10;;;4.90;99.90;;;;;;4993741;28;20197;-81
2021/11/21 14:33:14;;;;;;;18.70;16.90;;;4.90;99.90;;;;;;5001931;28;20244;-80
2021/11/21 14:35:45;;;;;;;19.03;17.23;;;4.90;99.90;;;;;;4994330;28;20752;-81
2021/11/21 14:38:14;;;;;;;18.83;17.10;;;4.90;99.90;;;;;;5004203;28;20555;-82
2021/11/21 14:40:43;;;;;;;17.40;16.00;;;4.90;99.90;;;;;;4996134;28;20197;-83
2021/11/21 14:43:11;;;;;;;18.57;16.63;;;4.90;99.90;;;;;;4996583;28;20292;-84
2021/11/21 14:45:38;;;;;;;18.20;16.70;;;4.90;99.90;;;;;;4999256;28;20193;-83
2021/11/21 14:48:05;;;;;;;18.83;17.13;;;4.80;99.90;;;;;;4997998;28;20213;-81
2021/11/21 14:50:34;;;;;;;20.17;18.23;;;4.80;99.90;;;;;;4995477;28;20254;-81
2021/11/21 14:53:02;;;;;;;18.70;17.17;;;4.80;99.90;;;;;;4995189;28;20239;-81
2021/11/21 14:55:37;;;;;;;19.87;17.97;;;4.80;99.90;;;;;;5000980;28;20676;-83
2021/11/21 14:58:09;;;;;;;19.27;17.30;;;4.70;99.90;;;;;;5035855;28;20212;-80
2021/11/21 15:00:35;;;;;;;20.20;18.40;;;4.70;99.90;;;;;;5006217;28;20629;-79
2021/11/21 15:03:02;;;;;;;19.97;18.17;;;4.80;99.90;;;;;;4994198;28;20209;-79
2021/11/21 15:05:29;;;;;;;20.87;18.93;;;4.80;99.90;;;;;;4989537;28;20193;-80
2021/11/21 15:07:56;;;;;;;21.13;19.03;;;4.70;99.90;;;;;;5002998;28;20729;-79
2021/11/21 15:10:23;;;;;;;20.93;18.93;;;4.70;99.90;;;;;;5004842;28;20690;-78
2021/11/21 15:12:51;;;;;;;20.00;18.30;;;4.70;99.90;;;;;;5027551;28;20256;-80
2021/11/21 15:15:18;;;;;;;19.50;17.77;;;4.80;99.90;;;;;;4993641;28;20252;-80
2021/11/21 15:17:47;;;;;;;19.87;18.03;;;4.70;99.90;;;;;;5007928;28;20262;-79
2021/11/21 15:20:14;;;;;;;19.30;17.50;;;4.70;99.90;;;;;;5004400;28;20201;-78
2021/11/21 15:22:44;;;;;;;19.03;17.27;;;4.70;99.90;;;;;;4996787;28;20221;-80
2021/11/21 15:25:11;;;;;;;20.10;18.20;;;4.60;99.90;;;;;;4996696;28;20288;-77
2021/11/21 15:27:39;;;;;;;20.77;18.80;;;4.60;99.90;;;;;;4992069;28;20633;-79
2021/11/21 15:30:08;;;;;;;23.43;21.03;;;4.60;99.90;;;;;;4992643;28;20215;-79
2021/11/21 15:32:36;;;;;;;23.50;21.07;;;4.50;99.90;;;;;;5003756;28;20228;-82
2021/11/21 15:35:04;;;;;;;22.60;20.40;;;4.50;99.90;;;;;;5009474;28;20684;-82
2021/11/21 15:37:31;;;;;;;24.13;21.27;;;4.50;99.90;;;;;;5028751;28;20204;-80
2021/11/21 15:39:58;;;;;;;24.10;21.50;;;4.50;99.90;;;;;;5006522;28;20231;-79
2021/11/21 15:42:25;;;;;;;24.17;21.57;;;4.50;99.90;;;;;;5003197;28;20652;-79
2021/11/21 15:44:52;;;;;;;28.33;22.67;;;4.50;99.90;;;;;;5010752;28;20578;-78
2021/11/21 15:47:20;;;;;;;26.30;23.13;;;4.40;99.90;;;;;;5002427;28;20220;-79
2021/11/21 15:49:48;;;;;;;24.87;22.13;;;4.40;99.90;;;;;;5009671;28;20208;-79